Terminal Aerodrome Forecast
Issued by NWS

Home | Current Version | Previous Version | Text Only | Print | Product List | Glossary On
Versions: 1 2 3 4 5 6 7 8 9 10 11 12 13 14 15 16 17
000
FTUS43 KBIS 240523
TAFJMS
TAF
KJMS 240523Z 2406/2506 30009KT P6SM FEW060 SCT090
     FM240900 29007KT P6SM VCSH BKN050 BKN100
      TEMPO 2409/2412 -SHRA OVC035
     FM241200 31011KT P6SM BKN020 BKN090
     FM241500 32017G25KT P6SM BKN030 BKN070
     FM250200 33009KT P6SM FEW040 SCT090=

USA.gov is the U.S. government's official web portal to all federal, state and local government web resources and services.